Time;durP1;ratioP1;P1;durP2;ratioP2;P2;SDS_P1;SDS_P2;PMS_P1;PMS_P2;Temp;Humidity;BMP_temperature;BMP_pressure;BME280_temperature;BME280_humidity;BME280_pressure;Samples;Min_cycle;Max_cycle;Signal;HPM_P1;HPM_P2
2022/07/27 00:00:46;;;;;;;4.35;1.45;;;16.90;56.20;;;;;;5054081;28;20037;-69
2022/07/27 00:03:11;;;;;;;2.75;1.02;;;16.90;56.20;;;;;;5052783;28;20037;-64
2022/07/27 00:05:38;;;;;;;1.60;0.80;;;16.90;56.30;;;;;;5052510;28;20091;-63
2022/07/27 00:08:05;;;;;;;1.98;0.70;;;16.90;56.30;;;;;;5052547;28;20047;-64
2022/07/27 00:10:32;;;;;;;2.38;0.80;;;16.90;56.30;;;;;;5052551;28;20494;-64
2022/07/27 00:12:58;;;;;;;2.75;0.90;;;16.80;56.30;;;;;;5052549;28;20045;-63
2022/07/27 00:21:20;;;;;;;1.55;0.85;;;16.70;56.70;;;;;;5457526;22;20398;-68
2022/07/27 00:23:46;;;;;;;3.35;1.23;;;16.70;56.40;;;;;;5030773;28;20389;-68
2022/07/27 00:26:12;;;;;;;2.63;0.80;;;16.70;56.60;;;;;;5033717;28;20120;-64
2022/07/27 00:28:37;;;;;;;5.32;1.40;;;16.70;56.60;;;;;;5033669;28;20037;-64
2022/07/27 00:31:03;;;;;;;2.70;1.13;;;16.70;56.70;;;;;;5016017;28;20111;-64
2022/07/27 00:33:29;;;;;;;2.17;0.90;;;16.70;56.80;;;;;;5032196;28;20045;-64
2022/07/27 00:35:55;;;;;;;2.80;0.98;;;16.60;56.80;;;;;;5032326;28;20049;-68
2022/07/27 00:38:20;;;;;;;3.55;1.33;;;16.70;56.90;;;;;;5032162;28;20080;-64
2022/07/27 00:40:46;;;;;;;3.15;1.20;;;16.60;57.00;;;;;;5015903;28;20053;-64
2022/07/27 00:43:12;;;;;;;2.83;0.80;;;16.60;57.10;;;;;;5031966;28;20037;-65
2022/07/27 00:45:37;;;;;;;3.92;1.10;;;16.60;57.20;;;;;;5031957;28;20261;-65
2022/07/27 00:48:03;;;;;;;2.90;0.82;;;16.60;57.20;;;;;;5031910;28;20060;-68
2022/07/27 00:50:30;;;;;;;2.13;0.98;;;16.60;57.30;;;;;;5031883;28;20094;-69
2022/07/27 00:52:56;;;;;;;2.50;0.93;;;16.60;57.40;;;;;;5031879;28;20061;-65
2022/07/27 00:55:22;;;;;;;2.13;1.10;;;16.60;57.40;;;;;;5031773;28;20045;-69
2022/07/27 00:57:48;;;;;;;3.47;1.35;;;16.60;57.50;;;;;;5031708;28;20052;-69
2022/07/27 01:00:14;;;;;;;2.90;0.88;;;16.60;57.50;;;;;;5031761;28;20049;-69
2022/07/27 01:02:40;;;;;;;1.33;0.70;;;16.60;57.60;;;;;;5033011;28;20041;-65
2022/07/27 01:05:06;;;;;;;3.70;1.00;;;16.60;57.60;;;;;;5031008;28;20405;-69
2022/07/27 01:07:32;;;;;;;2.30;0.85;;;16.60;57.60;;;;;;5031610;28;20474;-65
2022/07/27 01:09:58;;;;;;;2.85;0.93;;;16.60;58.00;;;;;;5031625;28;20041;-69
2022/07/27 01:12:31;;;;;;;2.17;0.90;;;16.60;57.60;;;;;;5031658;28;20041;-65
2022/07/27 01:14:58;;;;;;;1.98;0.77;;;16.60;57.60;;;;;;5031629;28;20052;-66
2022/07/27 01:17:29;;;;;;;2.45;0.90;;;16.60;57.50;;;;;;5031489;28;20129;-70
2022/07/27 01:19:56;;;;;;;3.03;1.10;;;16.60;57.50;;;;;;5032745;28;20049;-65
2022/07/27 01:22:21;;;;;;;2.08;0.93;;;16.60;57.50;;;;;;5014904;28;20046;-65
2022/07/27 01:24:49;;;;;;;0.88;0.70;;;16.60;57.50;;;;;;5031380;28;20068;-69
2022/07/27 01:27:14;;;;;;;3.35;1.10;;;16.60;57.40;;;;;;5031895;28;20041;-69
2022/07/27 01:29:40;;;;;;;1.83;0.90;;;16.60;57.40;;;;;;5031623;28;20559;-65
2022/07/27 01:32:06;;;;;;;3.17;1.10;;;16.60;57.30;;;;;;5031547;28;20103;-65
2022/07/27 01:34:32;;;;;;;2.05;0.70;;;16.60;57.30;;;;;;5031688;28;20080;-65
2022/07/27 01:37:02;;;;;;;2.58;0.90;;;16.60;57.30;;;;;;5048174;28;20156;-65
2022/07/27 01:39:28;;;;;;;3.40;0.95;;;16.60;57.30;;;;;;5032601;28;20371;-65
2022/07/27 01:41:54;;;;;;;2.20;1.00;;;16.60;57.30;;;;;;5032466;28;20045;-65
2022/07/27 01:44:20;;;;;;;1.90;0.70;;;16.60;57.30;;;;;;5031257;28;20104;-65
2022/07/27 01:46:46;;;;;;;1.85;0.70;;;16.60;57.30;;;;;;5032423;28;20402;-65
2022/07/27 01:49:11;;;;;;;2.80;0.70;;;16.60;57.30;;;;;;5032702;28;20124;-69
2022/07/27 01:51:37;;;;;;;2.50;1.05;;;16.60;57.30;;;;;;5031508;28;20056;-69
2022/07/27 01:54:03;;;;;;;3.45;1.17;;;16.50;57.30;;;;;;5031363;28;20049;-65
2022/07/27 01:56:29;;;;;;;3.03;0.90;;;16.50;57.30;;;;;;5032388;28;20509;-69
2022/07/27 01:58:54;;;;;;;3.03;0.77;;;16.50;57.40;;;;;;5032353;28;20044;-69
2022/07/27 02:01:20;;;;;;;2.80;0.95;;;16.50;57.40;;;;;;5031286;28;20053;-69
2022/07/27 02:03:46;;;;;;;2.75;1.00;;;16.50;57.40;;;;;;5014705;28;20036;-65
2022/07/27 02:06:11;;;;;;;2.90;1.00;;;16.50;57.50;;;;;;5032247;28;20056;-65
2022/07/27 02:08:38;;;;;;;4.55;1.02;;;16.50;57.60;;;;;;5031347;28;20135;-68
2022/07/27 02:13:48;;;;;;;1.98;1.10;;;16.50;57.60;;;;;;5031213;28;20402;-65
2022/07/27 02:16:16;;;;;;;2.05;0.80;;;16.50;57.60;;;;;;5032542;28;20049;-65
2022/07/27 02:18:42;;;;;;;2.55;0.93;;;16.40;57.60;;;;;;5036042;28;20041;-65
2022/07/27 02:21:09;;;;;;;1.42;0.70;;;16.40;57.60;;;;;;5035836;28;20125;-65
2022/07/27 02:23:36;;;;;;;2.75;1.30;;;16.40;57.60;;;;;;5034458;28;20042;-65
2022/07/27 02:26:06;;;;;;;3.15;0.70;;;16.40;57.90;;;;;;5034841;28;20378;-65
2022/07/27 02:28:33;;;;;;;3.33;0.82;;;16.40;57.60;;;;;;5034358;28;20045;-65
2022/07/27 02:31:00;;;;;;;1.48;0.90;;;16.40;57.60;;;;;;5035838;28;20047;-65
2022/07/27 02:33:26;;;;;;;3.17;0.80;;;16.40;57.90;;;;;;5034679;28;20508;-65
2022/07/27 02:35:51;;;;;;;1.80;0.70;;;16.40;57.50;;;;;;5034410;28;20045;-65
2022/07/27 02:38:17;;;;;;;1.33;0.85;;;16.40;57.50;;;;;;5034221;28;20406;-68
2022/07/27 02:40:43;;;;;;;1.67;0.75;;;16.40;57.50;;;;;;5035571;28;20077;-65
2022/07/27 02:43:09;;;;;;;3.45;1.05;;;16.40;57.50;;;;;;5034163;28;20041;-65
2022/07/27 02:45:34;;;;;;;3.67;1.05;;;16.30;57.40;;;;;;5035647;28;20120;-65
2022/07/27 02:48:00;;;;;;;1.75;0.80;;;16.30;57.40;;;;;;5035421;28;20053;-65
2022/07/27 02:50:26;;;;;;;2.80;1.00;;;16.30;57.40;;;;;;5034396;28;20045;-68
2022/07/27 02:52:51;;;;;;;2.20;0.90;;;16.30;57.40;;;;;;5034246;28;20044;-65
2022/07/27 02:55:17;;;;;;;4.80;1.45;;;16.30;57.40;;;;;;5033961;28;20052;-65
2022/07/27 02:57:42;;;;;;;4.32;0.90;;;16.30;57.80;;;;;;5035183;28;20132;-65
2022/07/27 03:00:14;;;;;;;1.75;0.80;;;16.20;57.40;;;;;;5035385;28;20091;-69
2022/07/27 03:02:41;;;;;;;1.98;0.90;;;16.20;57.40;;;;;;5035339;28;20045;-70
2022/07/27 03:05:08;;;;;;;4.07;1.00;;;16.20;57.50;;;;;;5034135;28;20049;-70
2022/07/27 03:07:34;;;;;;;1.92;0.80;;;16.20;57.50;;;;;;5033794;28;20573;-70
2022/07/27 03:09:59;;;;;;;4.43;0.95;;;16.10;57.50;;;;;;5034113;28;20132;-69
2022/07/27 03:12:25;;;;;;;3.28;1.00;;;16.10;57.50;;;;;;5033909;28;20494;-69
2022/07/27 03:14:51;;;;;;;2.70;1.10;;;16.10;57.50;;;;;;5017201;28;20130;-69
2022/07/27 03:17:16;;;;;;;2.15;0.77;;;16.10;57.50;;;;;;5033778;28;20045;-68
2022/07/27 03:19:42;;;;;;;5.05;1.02;;;16.10;57.50;;;;;;5033541;28;20099;-68
2022/07/27 03:22:08;;;;;;;4.05;1.33;;;16.00;57.50;;;;;;5033479;28;20108;-65
2022/07/27 03:24:34;;;;;;;2.25;0.88;;;16.00;57.50;;;;;;5017164;28;20053;-64
2022/07/27 03:27:00;;;;;;;5.30;1.27;;;16.00;57.50;;;;;;5033056;28;20103;-68
2022/07/27 03:29:25;;;;;;;4.00;1.25;;;16.00;57.50;;;;;;5034241;28;20076;-64
2022/07/27 03:31:51;;;;;;;2.38;1.02;;;15.90;57.50;;;;;;5034800;28;20037;-69
2022/07/27 03:34:17;;;;;;;2.22;0.82;;;15.90;57.50;;;;;;5034652;28;20033;-69
2022/07/27 03:36:43;;;;;;;3.08;0.90;;;15.90;57.50;;;;;;5033325;28;20073;-69
2022/07/27 03:39:09;;;;;;;2.15;1.17;;;15.90;57.60;;;;;;5033222;28;20041;-69
2022/07/27 03:41:34;;;;;;;4.35;1.02;;;15.90;57.60;;;;;;5033266;28;20188;-68
2022/07/27 03:44:00;;;;;;;3.00;1.48;;;15.80;57.60;;;;;;5034837;28;20045;-68
2022/07/27 03:46:25;;;;;;;3.22;1.20;;;15.80;57.60;;;;;;5033353;28;20063;-69
2022/07/27 03:48:51;;;;;;;3.25;1.38;;;15.80;57.60;;;;;;5033040;28;20443;-69
2022/07/27 03:51:17;;;;;;;3.60;1.05;;;15.70;57.60;;;;;;5032965;28;20037;-69
2022/07/27 03:53:42;;;;;;;2.35;0.85;;;15.70;57.60;;;;;;5033035;28;20084;-69
2022/07/27 03:56:08;;;;;;;2.97;1.35;;;15.70;57.60;;;;;;5032937;28;20383;-69
2022/07/27 03:58:34;;;;;;;3.05;1.20;;;15.70;57.70;;;;;;5033011;28;20122;-68
2022/07/27 04:00:59;;;;;;;3.85;1.08;;;15.60;57.60;;;;;;5034261;28;20044;-68
2022/07/27 04:03:25;;;;;;;3.60;1.05;;;15.50;57.60;;;;;;5016592;28;20077;-68
2022/07/27 04:05:51;;;;;;;2.08;1.10;;;15.60;57.70;;;;;;5032686;28;20079;-67
2022/07/27 04:08:18;;;;;;;1.05;0.60;;;15.50;57.70;;;;;;5032715;28;20045;-68
2022/07/27 04:10:44;;;;;;;2.17;1.20;;;15.50;57.70;;;;;;5032716;28;20056;-68
2022/07/27 04:13:11;;;;;;;2.67;1.20;;;15.50;57.80;;;;;;5016223;28;20120;-69
2022/07/27 04:15:37;;;;;;;1.90;0.98;;;15.50;57.90;;;;;;5032540;28;20045;-63
2022/07/27 04:18:03;;;;;;;2.67;1.10;;;15.50;58.00;;;;;;5032476;28;20473;-63
2022/07/27 04:20:29;;;;;;;2.15;1.02;;;15.40;58.00;;;;;;5015876;28;20478;-64
2022/07/27 04:22:54;;;;;;;2.35;0.90;;;15.40;58.00;;;;;;5032215;28;20092;-64
2022/07/27 04:25:21;;;;;;;1.85;0.95;;;15.40;58.10;;;;;;5032329;28;20081;-64
2022/07/27 04:27:47;;;;;;;1.50;1.00;;;15.30;58.20;;;;;;5032254;28;20037;-68
2022/07/27 04:30:12;;;;;;;2.22;0.70;;;15.30;58.30;;;;;;5032233;28;20042;-68
2022/07/27 04:32:39;;;;;;;1.92;0.85;;;15.30;58.40;;;;;;5016126;28;20052;-64
2022/07/27 04:35:06;;;;;;;4.45;1.27;;;15.30;58.50;;;;;;5048939;28;20083;-64
2022/07/27 04:37:32;;;;;;;3.22;1.20;;;15.30;58.60;;;;;;5033321;28;20402;-68
2022/07/27 04:39:59;;;;;;;1.35;0.98;;;15.30;58.70;;;;;;5031825;28;20491;-68
2022/07/27 04:42:24;;;;;;;3.47;1.30;;;15.30;58.80;;;;;;5032274;28;20386;-64
2022/07/27 04:44:50;;;;;;;1.52;0.90;;;15.30;58.90;;;;;;5032306;28;20045;-68
2022/07/27 04:47:16;;;;;;;4.55;1.42;;;15.30;59.00;;;;;;5033255;28;20474;-64
2022/07/27 04:49:41;;;;;;;4.15;1.35;;;15.30;59.10;;;;;;5033218;28;20045;-68
2022/07/27 04:52:07;;;;;;;3.63;1.13;;;15.30;59.10;;;;;;5031948;28;20053;-69
2022/07/27 04:54:33;;;;;;;3.33;1.20;;;15.30;59.10;;;;;;5031882;28;20120;-68
2022/07/27 04:56:58;;;;;;;2.90;1.10;;;15.40;59.20;;;;;;5033138;28;20041;-68
2022/07/27 04:59:24;;;;;;;3.83;1.42;;;15.40;59.30;;;;;;5031667;28;20049;-64
2022/07/27 05:01:50;;;;;;;1.88;0.93;;;15.40;59.30;;;;;;5031725;28;20120;-64
2022/07/27 05:04:15;;;;;;;3.15;0.82;;;15.40;59.40;;;;;;5015274;28;20042;-68
2022/07/27 05:06:41;;;;;;;2.75;1.00;;;15.40;59.30;;;;;;5032781;28;20048;-64
2022/07/27 05:09:07;;;;;;;2.65;1.10;;;15.40;59.40;;;;;;5031857;28;20057;-68
2022/07/27 05:11:32;;;;;;;3.10;1.40;;;15.40;59.40;;;;;;5031910;28;20500;-68
2022/07/27 05:13:58;;;;;;;5.90;1.45;;;15.50;59.50;;;;;;5032909;28;20095;-68
2022/07/27 05:16:24;;;;;;;4.10;1.33;;;15.50;59.70;;;;;;5032922;28;20041;-68
2022/07/27 05:18:50;;;;;;;4.30;1.95;;;15.50;59.70;;;;;;5031362;28;20502;-68
2022/07/27 05:21:15;;;;;;;3.78;1.17;;;15.50;59.70;;;;;;5032495;28;20049;-65
2022/07/27 05:23:41;;;;;;;3.10;1.33;;;15.60;60.20;;;;;;5032533;28;20055;-68
2022/07/27 05:26:07;;;;;;;4.10;1.33;;;15.60;59.90;;;;;;5014877;28;20045;-68
2022/07/27 05:28:32;;;;;;;4.18;1.75;;;15.60;59.90;;;;;;5031473;28;20179;-63
2022/07/27 05:30:58;;;;;;;3.17;1.20;;;15.70;60.00;;;;;;5014988;28;20119;-69
2022/07/27 05:33:24;;;;;;;3.10;1.15;;;15.70;60.00;;;;;;5031564;28;20049;-67
2022/07/27 05:35:50;;;;;;;1.85;0.85;;;15.70;60.00;;;;;;5031379;28;20525;-67
2022/07/27 05:38:15;;;;;;;2.90;1.23;;;15.80;60.00;;;;;;5031277;28;20042;-68
2022/07/27 05:40:44;;;;;;;3.20;1.20;;;15.80;60.00;;;;;;5032663;28;20045;-68
2022/07/27 05:43:10;;;;;;;3.47;1.17;;;15.80;60.10;;;;;;5031672;28;20390;-68
2022/07/27 05:45:35;;;;;;;2.72;0.95;;;15.80;60.00;;;;;;5031502;28;20048;-68
2022/07/27 05:48:01;;;;;;;5.03;1.35;;;15.90;60.10;;;;;;5031440;28;20123;-68
2022/07/27 05:50:26;;;;;;;3.60;1.17;;;15.90;60.10;;;;;;5031567;28;20383;-67
2022/07/27 05:52:52;;;;;;;4.13;1.25;;;16.00;60.10;;;;;;5035109;28;20045;-68
2022/07/27 05:55:18;;;;;;;3.75;1.40;;;16.00;60.10;;;;;;5018984;28;20103;-64
2022/07/27 05:57:44;;;;;;;2.83;1.10;;;16.00;60.20;;;;;;5035025;28;20417;-68
2022/07/27 06:00:10;;;;;;;1.77;1.02;;;16.10;60.30;;;;;;5036614;28;20037;-68
2022/07/27 06:02:36;;;;;;;2.88;1.20;;;16.10;60.30;;;;;;5035057;28;20128;-69
2022/07/27 06:05:02;;;;;;;3.28;1.10;;;16.20;60.40;;;;;;5035223;28;20036;-64
2022/07/27 06:10:12;;;;;;;2.47;1.38;;;16.20;60.30;;;;;;5035140;28;20115;-64
2022/07/27 06:12:42;;;;;;;3.30;1.13;;;16.30;60.40;;;;;;5018447;28;20484;-63
2022/07/27 06:15:09;;;;;;;3.78;1.20;;;16.30;60.50;;;;;;5034784;28;20045;-63
2022/07/27 06:17:35;;;;;;;3.35;1.13;;;16.30;60.40;;;;;;5034710;28;20049;-68
2022/07/27 06:20:03;;;;;;;3.47;1.23;;;16.40;60.30;;;;;;5035681;28;20099;-68
2022/07/27 06:22:29;;;;;;;4.95;1.50;;;16.50;60.40;;;;;;5034385;28;20136;-68
2022/07/27 06:24:54;;;;;;;6.03;1.35;;;16.50;60.40;;;;;;5034628;28;20045;-68
2022/07/27 06:27:20;;;;;;;4.07;1.17;;;16.60;60.50;;;;;;5035989;28;20048;-68
2022/07/27 06:29:46;;;;;;;7.28;1.60;;;16.60;60.50;;;;;;5035790;28;20041;-63
2022/07/27 06:32:11;;;;;;;3.65;1.40;;;16.60;60.40;;;;;;5035743;28;20087;-67
2022/07/27 06:34:37;;;;;;;4.82;1.70;;;16.70;60.60;;;;;;5034498;28;20083;-63
2022/07/27 06:37:03;;;;;;;5.05;1.35;;;16.70;60.40;;;;;;5034446;28;20115;-63
2022/07/27 06:39:29;;;;;;;4.32;1.70;;;16.70;60.50;;;;;;5034338;28;20033;-63
2022/07/27 06:41:55;;;;;;;6.35;2.17;;;16.80;60.40;;;;;;5034376;28;20541;-63
2022/07/27 06:44:20;;;;;;;8.35;2.03;;;16.80;60.40;;;;;;5035462;28;20049;-67
2022/07/27 06:46:46;;;;;;;5.15;1.33;;;16.90;60.20;;;;;;5035752;28;20045;-68
2022/07/27 06:49:12;;;;;;;6.53;2.20;;;16.90;60.10;;;;;;5035460;28;20051;-67
2022/07/27 06:51:38;;;;;;;4.47;1.50;;;16.90;60.20;;;;;;5034011;28;20045;-67
2022/07/27 06:54:05;;;;;;;4.80;1.50;;;17.00;60.40;;;;;;5017836;28;20072;-68
2022/07/27 06:56:32;;;;;;;7.50;1.92;;;17.00;60.50;;;;;;5035386;28;20077;-67
2022/07/27 06:58:57;;;;;;;5.78;1.70;;;17.10;60.30;;;;;;5034188;28;20037;-68
2022/07/27 07:01:23;;;;;;;7.65;1.45;;;17.30;60.50;;;;;;5033826;28;20107;-67
2022/07/27 07:03:49;;;;;;;7.47;1.80;;;17.60;60.90;;;;;;5032963;28;20045;-68
2022/07/27 07:06:15;;;;;;;3.75;1.33;;;17.80;59.60;;;;;;5033987;28;20050;-68
2022/07/27 07:08:41;;;;;;;5.32;1.30;;;18.10;59.20;;;;;;5033987;28;20084;-68
2022/07/27 07:11:08;;;;;;;5.32;1.35;;;18.50;58.90;;;;;;5033990;28;20053;-68
2022/07/27 07:13:33;;;;;;;5.00;1.15;;;19.00;58.30;;;;;;5033748;28;20100;-69
2022/07/27 07:15:59;;;;;;;3.78;1.30;;;19.50;57.20;;;;;;5033902;28;20049;-68
2022/07/27 07:18:25;;;;;;;4.80;1.40;;;20.10;56.60;;;;;;5033504;28;20456;-69
2022/07/27 07:20:51;;;;;;;5.32;1.10;;;20.70;55.50;;;;;;5033629;28;20048;-68
2022/07/27 07:23:16;;;;;;;6.25;1.40;;;21.30;54.40;;;;;;5034580;28;20057;-68
2022/07/27 07:25:42;;;;;;;4.80;1.27;;;21.80;53.00;;;;;;5034852;28;20090;-68
2022/07/27 07:28:08;;;;;;;6.13;1.55;;;22.30;51.70;;;;;;5033952;28;20056;-68
2022/07/27 07:30:33;;;;;;;5.05;1.23;;;22.80;50.50;;;;;;5033921;28;20545;-69
2022/07/27 07:33:00;;;;;;;8.45;1.20;;;23.20;49.50;;;;;;5028554;28;20029;-68
2022/07/27 07:35:26;;;;;;;4.45;1.08;;;23.50;48.60;;;;;;5015546;28;20478;-69
2022/07/27 07:37:52;;;;;;;4.60;1.30;;;23.70;47.40;;;;;;5032865;28;20513;-69
2022/07/27 07:40:18;;;;;;;4.13;1.10;;;24.00;46.90;;;;;;5032140;28;20045;-69
2022/07/27 07:43:03;;;;;;;4.78;1.05;;;24.20;45.50;;;;;;5034053;28;20041;-69
2022/07/27 07:45:32;;;;;;;5.30;1.15;;;24.20;45.00;;;;;;5034848;28;20041;-68
2022/07/27 07:47:58;;;;;;;4.70;1.13;;;24.30;44.40;;;;;;5034565;28;20037;-68
2022/07/27 07:50:24;;;;;;;4.30;1.23;;;24.50;44.20;;;;;;5033351;28;20044;-68
2022/07/27 07:52:51;;;;;;;3.03;0.80;;;24.70;43.90;;;;;;5033180;28;20120;-68
2022/07/27 07:55:27;;;;;;;3.30;0.90;;;24.80;42.60;;;;;;5034419;28;20048;-69
2022/07/27 07:57:53;;;;;;;2.70;0.90;;;25.00;42.00;;;;;;5033217;28;20382;-63
2022/07/27 08:00:20;;;;;;;4.70;0.80;;;25.10;41.90;;;;;;5034140;28;20806;-63
2022/07/27 08:02:52;;;;;;;5.85;1.10;;;25.30;41.50;;;;;;5034233;28;20052;-63
2022/07/27 08:05:18;;;;;;;4.65;0.90;;;25.40;41.30;;;;;;5032882;28;20033;-68
2022/07/27 08:07:44;;;;;;;3.38;0.88;;;25.40;41.40;;;;;;5032714;28;20041;-68
2022/07/27 08:10:12;;;;;;;7.25;1.10;;;25.40;41.20;;;;;;5032431;28;20301;-63
2022/07/27 08:12:42;;;;;;;4.57;0.85;;;25.40;41.00;;;;;;5032709;28;20045;-70
2022/07/27 08:15:08;;;;;;;5.95;1.17;;;25.50;40.70;;;;;;5033371;28;20033;-63
2022/07/27 08:17:34;;;;;;;3.03;1.00;;;25.50;39.90;;;;;;5033801;28;20521;-68
2022/07/27 08:20:00;;;;;;;3.92;1.42;;;25.40;40.00;;;;;;5033679;28;20049;-70
2022/07/27 08:22:26;;;;;;;3.15;0.80;;;25.40;40.00;;;;;;5033740;28;20123;-69
2022/07/27 08:24:52;;;;;;;1.83;0.80;;;25.40;40.00;;;;;;5032634;28;20442;-70
2022/07/27 08:27:17;;;;;;;4.18;1.10;;;25.40;39.60;;;;;;5032340;28;20037;-63
2022/07/27 08:29:43;;;;;;;2.33;0.80;;;25.40;39.50;;;;;;5032240;28;20398;-63
2022/07/27 08:32:09;;;;;;;2.55;0.80;;;25.30;38.90;;;;;;5032552;28;20045;-63
2022/07/27 08:34:35;;;;;;;4.45;0.90;;;25.10;38.90;;;;;;5048789;28;20085;-64
2022/07/27 08:37:01;;;;;;;3.88;0.70;;;25.00;38.80;;;;;;5032216;28;20091;-65
2022/07/27 08:39:26;;;;;;;2.58;1.05;;;24.80;38.70;;;;;;5033280;28;20045;-68
2022/07/27 08:41:54;;;;;;;3.53;0.70;;;24.70;39.30;;;;;;5033451;28;20045;-69
2022/07/27 08:44:23;;;;;;;3.67;1.00;;;24.60;38.90;;;;;;5033417;28;20045;-69
2022/07/27 08:46:50;;;;;;;3.63;1.02;;;24.60;39.10;;;;;;5048660;28;20163;-64
2022/07/27 08:49:17;;;;;;;4.35;1.20;;;24.50;39.20;;;;;;5031906;28;20508;-64
2022/07/27 08:51:43;;;;;;;2.35;0.70;;;24.50;38.90;;;;;;5031885;28;20512;-69
2022/07/27 08:54:10;;;;;;;3.63;1.10;;;24.40;39.30;;;;;;5048509;28;20054;-69
2022/07/27 08:56:36;;;;;;;3.50;1.00;;;24.40;39.50;;;;;;5032374;28;20049;-69
2022/07/27 08:59:03;;;;;;;3.25;1.42;;;24.50;39.60;;;;;;5033607;28;20124;-69
2022/07/27 09:01:33;;;;;;;4.28;1.15;;;24.50;39.90;;;;;;5033620;28;20038;-69
2022/07/27 09:03:59;;;;;;;4.07;1.15;;;24.60;39.50;;;;;;5033409;28;20041;-70
2022/07/27 09:06:49;;;;;;;3.45;0.98;;;24.60;39.70;;;;;;5031627;28;20041;-64
2022/07/27 09:09:18;;;;;;;4.82;1.17;;;24.60;39.80;;;;;;5031833;28;20498;-69
2022/07/27 09:12:05;;;;;;;6.20;1.05;;;24.60;39.60;;;;;;5031907;28;20116;-69
2022/07/27 09:14:34;;;;;;;4.22;1.13;;;24.50;39.80;;;;;;5033088;28;20140;-69
2022/07/27 09:17:21;;;;;;;3.90;0.95;;;24.50;39.90;;;;;;5032941;28;20479;-68
2022/07/27 09:20:03;;;;;;;2.70;0.85;;;24.40;40.10;;;;;;5041100;28;20040;-68
2022/07/27 09:22:52;;;;;;;5.65;1.38;;;24.30;40.40;;;;;;5051132;28;20053;-70
2022/07/27 09:25:22;;;;;;;6.47;1.23;;;24.00;41.20;;;;;;5050588;28;20041;-69
2022/07/27 09:27:53;;;;;;;4.72;1.02;;;23.70;42.20;;;;;;5051465;28;20036;-68
2022/07/27 09:30:20;;;;;;;3.00;1.05;;;23.50;42.70;;;;;;5051078;28;20083;-67
2022/07/27 09:32:58;;;;;;;3.30;1.35;;;23.30;43.00;;;;;;5052523;28;20037;-67
2022/07/27 09:35:35;;;;;;;2.78;0.93;;;23.10;43.70;;;;;;5051346;28;20037;-69
2022/07/27 09:38:20;;;;;;;3.97;0.90;;;22.90;43.90;;;;;;5051264;28;20161;-62
2022/07/27 09:40:48;;;;;;;3.25;0.90;;;22.70;44.60;;;;;;5051407;28;20043;-68
2022/07/27 09:43:14;;;;;;;4.95;1.05;;;22.60;45.10;;;;;;5052839;28;20098;-67
2022/07/27 09:45:44;;;;;;;6.00;1.20;;;22.40;44.90;;;;;;5052424;28;20398;-69
2022/07/27 09:48:13;;;;;;;3.35;0.80;;;22.30;45.90;;;;;;5051227;28;20555;-68
2022/07/27 09:50:58;;;;;;;3.08;1.00;;;22.20;45.70;;;;;;5051512;28;20440;-69
2022/07/27 09:53:26;;;;;;;1.83;0.70;;;22.20;45.90;;;;;;5051114;28;20052;-63
2022/07/27 09:56:01;;;;;;;4.82;1.27;;;22.10;45.70;;;;;;5051213;28;20037;-68
2022/07/27 09:58:46;;;;;;;4.88;0.82;;;22.20;45.50;;;;;;5052393;28;20401;-68
2022/07/27 10:01:24;;;;;;;4.18;1.10;;;22.10;46.00;;;;;;5051162;28;20047;-63
2022/07/27 10:03:53;;;;;;;3.65;0.88;;;22.10;46.30;;;;;;5050941;28;20041;-62
2022/07/27 10:06:19;;;;;;;4.53;1.75;;;22.00;45.60;;;;;;5051362;28;20044;-63
2022/07/27 10:08:48;;;;;;;4.38;1.15;;;22.00;45.30;;;;;;5049691;28;20043;-63
2022/07/27 10:11:14;;;;;;;4.28;1.17;;;22.00;45.00;;;;;;5051095;28;20037;-63
2022/07/27 10:13:40;;;;;;;3.35;0.95;;;22.00;44.70;;;;;;5049362;28;20116;-62
2022/07/27 10:16:10;;;;;;;2.88;0.90;;;21.90;44.50;;;;;;5048506;28;20532;-62
2022/07/27 10:19:01;;;;;;;3.83;1.33;;;21.90;44.50;;;;;;5049233;28;20041;-63
2022/07/27 10:21:28;;;;;;;6.25;1.23;;;21.80;44.00;;;;;;5050450;28;20052;-63
2022/07/27 10:23:56;;;;;;;3.35;0.90;;;21.80;44.00;;;;;;5050697;28;20214;-63
2022/07/27 10:26:25;;;;;;;3.67;0.90;;;21.80;44.00;;;;;;5050825;28;20046;-62
2022/07/27 10:28:56;;;;;;;2.22;0.88;;;21.80;44.80;;;;;;5052037;28;20044;-67
2022/07/27 10:31:24;;;;;;;4.35;1.20;;;21.80;45.20;;;;;;5051090;28;20460;-67
2022/07/27 10:33:54;;;;;;;2.78;0.90;;;21.80;44.40;;;;;;5050737;28;20131;-67
2022/07/27 10:36:22;;;;;;;2.22;0.77;;;21.80;44.00;;;;;;5050894;28;20076;-67
2022/07/27 10:38:57;;;;;;;4.60;1.10;;;21.80;44.00;;;;;;5054482;28;20394;-67
2022/07/27 10:41:27;;;;;;;4.72;1.00;;;21.70;44.30;;;;;;5055540;28;20043;-64
2022/07/27 10:44:17;;;;;;;5.03;0.90;;;21.80;44.20;;;;;;5054286;28;20045;-63
2022/07/27 10:46:45;;;;;;;4.05;0.95;;;21.80;44.70;;;;;;5054397;28;20116;-68
2022/07/27 10:49:18;;;;;;;3.35;0.73;;;21.90;45.20;;;;;;5055589;28;20033;-68
2022/07/27 10:51:44;;;;;;;2.20;0.80;;;22.00;45.00;;;;;;5054044;28;20088;-67
2022/07/27 10:54:21;;;;;;;4.35;1.20;;;22.10;44.60;;;;;;5037691;28;20045;-68
2022/07/27 10:56:48;;;;;;;3.67;0.90;;;22.20;45.10;;;;;;5055185;28;20053;-67
2022/07/27 10:59:34;;;;;;;4.47;1.23;;;22.30;45.00;;;;;;5055305;28;20040;-68
2022/07/27 11:02:00;;;;;;;3.20;0.88;;;22.40;45.30;;;;;;5053739;28;20695;-67
2022/07/27 11:04:26;;;;;;;3.30;0.90;;;22.50;45.40;;;;;;5070626;28;20171;-67
2022/07/27 11:06:59;;;;;;;4.75;1.63;;;22.60;44.40;;;;;;5054014;28;20086;-67
2022/07/27 11:09:35;;;;;;;3.88;0.93;;;22.60;44.00;;;;;;5053909;28;20045;-68
2022/07/27 11:12:06;;;;;;;4.50;1.05;;;22.70;44.20;;;;;;5053682;28;20089;-67
2022/07/27 11:14:46;;;;;;;2.60;0.80;;;22.80;44.50;;;;;;5053695;28;20040;-69
2022/07/27 11:17:13;;;;;;;3.90;0.77;;;22.80;44.40;;;;;;5053889;28;20162;-68
2022/07/27 11:19:38;;;;;;;5.95;1.35;;;22.90;45.00;;;;;;5054751;28;20049;-67
2022/07/27 11:22:04;;;;;;;5.60;1.10;;;23.00;44.60;;;;;;5054624;28;20072;-68
2022/07/27 11:24:31;;;;;;;9.18;1.63;;;23.00;44.00;;;;;;5054920;28;20126;-67
2022/07/27 11:26:57;;;;;;;3.50;0.93;;;23.10;43.00;;;;;;5054854;28;20048;-67
2022/07/27 11:29:24;;;;;;;5.50;1.05;;;23.20;42.60;;;;;;5053366;28;20401;-67
2022/07/27 11:31:53;;;;;;;5.57;0.88;;;23.20;42.40;;;;;;5054527;28;20040;-63
2022/07/27 11:34:25;;;;;;;4.45;0.77;;;23.30;42.70;;;;;;5053260;28;20041;-67
2022/07/27 11:36:51;;;;;;;2.63;0.85;;;23.30;42.60;;;;;;5054694;28;20378;-67
2022/07/27 11:39:25;;;;;;;2.88;0.73;;;23.30;42.90;;;;;;5054655;28;20048;-68
2022/07/27 11:41:58;;;;;;;3.30;0.98;;;23.30;42.60;;;;;;5053587;28;20045;-68
2022/07/27 11:44:25;;;;;;;;;;;23.30;43.00;;;;;;5053597;28;20047;-63
2022/07/27 11:46:52;;;;;;;3.50;1.02;;;23.20;43.30;;;;;;5053026;28;19927;-63
2022/07/27 11:49:28;;;;;;;3.38;1.17;;;23.10;43.50;;;;;;5052249;28;20052;-63
2022/07/27 11:51:59;;;;;;;3.33;1.10;;;23.00;43.80;;;;;;5053235;28;20040;-63
2022/07/27 11:54:26;;;;;;;1.85;0.70;;;22.90;44.30;;;;;;5054245;28;20040;-63
2022/07/27 11:57:14;;;;;;;2.53;0.80;;;22.80;44.80;;;;;;5052869;28;20119;-63
2022/07/27 11:59:44;;;;;;;3.47;1.00;;;22.80;45.50;;;;;;5052872;28;20045;-63
2022/07/27 12:02:16;;;;;;;5.70;1.20;;;22.80;45.60;;;;;;5054108;28;20036;-63
2022/07/27 12:04:44;;;;;;;2.13;0.68;;;22.80;44.90;;;;;;5053972;28;20045;-67
2022/07/27 12:07:20;;;;;;;3.50;1.10;;;22.80;44.90;;;;;;5052500;28;20383;-67
2022/07/27 12:09:53;;;;;;;2.88;0.95;;;22.80;43.50;;;;;;5053111;28;20053;-67
2022/07/27 12:12:20;;;;;;;2.60;0.73;;;22.70;43.90;;;;;;5052607;28;20052;-67
2022/07/27 12:14:53;;;;;;;3.38;0.75;;;22.70;42.40;;;;;;5069233;28;20131;-67
2022/07/27 12:17:35;;;;;;;4.07;1.00;;;22.70;42.60;;;;;;5052471;28;20045;-64
2022/07/27 12:20:19;;;;;;;2.63;0.88;;;22.80;43.40;;;;;;5052204;28;20045;-67
2022/07/27 12:22:52;;;;;;;3.50;0.70;;;22.90;42.00;;;;;;5053544;28;20064;-63
2022/07/27 12:25:18;;;;;;;3.08;0.82;;;22.90;42.70;;;;;;5053669;28;20025;-63
2022/07/27 12:27:57;;;;;;;2.97;0.80;;;23.00;42.40;;;;;;5053691;28;20393;-68
2022/07/27 12:30:44;;;;;;;2.80;0.73;;;23.00;40.30;;;;;;5052398;28;20389;-67
2022/07/27 12:33:28;;;;;;;2.33;0.73;;;23.00;40.90;;;;;;5053501;28;20500;-63
2022/07/27 12:35:54;;;;;;;2.05;0.82;;;23.00;41.50;;;;;;5052201;28;20513;-68
2022/07/27 12:38:20;;;;;;;3.55;0.70;;;23.00;41.50;;;;;;5052342;28;20405;-67
2022/07/27 12:40:52;;;;;;;2.08;0.80;;;23.10;40.20;;;;;;5052351;28;20040;-67
2022/07/27 12:43:20;;;;;;;2.30;0.70;;;23.10;39.90;;;;;;5068950;28;20044;-67
2022/07/27 12:45:50;;;;;;;1.42;0.55;;;23.10;39.40;;;;;;5053458;28;20399;-67
2022/07/27 12:48:37;;;;;;;3.15;0.75;;;23.10;40.30;;;;;;5051969;28;20501;-67
2022/07/27 12:51:05;;;;;;;1.85;0.60;;;23.10;39.90;;;;;;5068478;28;20493;-67
2022/07/27 12:53:34;;;;;;;2.72;1.10;;;23.20;40.20;;;;;;5052964;28;20129;-67
2022/07/27 12:56:03;;;;;;;2.03;0.52;;;23.30;39.60;;;;;;5053139;28;20033;-67
2022/07/27 12:58:30;;;;;;;3.17;0.55;;;23.30;40.10;;;;;;5051999;28;20055;-68
2022/07/27 13:00:55;;;;;;;2.22;0.88;;;23.30;40.30;;;;;;5051787;28;20094;-68
2022/07/27 13:03:21;;;;;;;2.72;0.60;;;23.50;40.80;;;;;;5051979;28;20048;-68